Time;durP1;ratioP1;P1;durP2;ratioP2;P2;SDS_P1;SDS_P2;PMS_P1;PMS_P2;Temp;Humidity;BMP_temperature;BMP_pressure;BME280_temperature;BME280_humidity;BME280_pressure;Samples;Min_cycle;Max_cycle;Signal;HPM_P1;HPM_P2
2022/12/13 00:02:11;;;;;;;32.97;14.53;;;;;;;;;;4994335;28;20236;-65
2022/12/13 00:04:36;;;;;;;25.07;13.97;;;;;;;;;;4995636;28;20255;-65
2022/12/13 00:07:01;;;;;;;26.90;15.27;;;;;;;;;;4995323;28;20349;-64
2022/12/13 00:09:27;;;;;;;31.10;15.73;;;;;;;;;;4994809;28;20209;-65
2022/12/13 00:11:53;;;;;;;25.60;13.73;;;;;;;;;;4995803;28;20283;-65
2022/12/13 00:14:18;;;;;;;26.40;14.50;;;;;;;;;;4995202;28;20217;-65
2022/12/13 00:16:44;;;;;;;28.73;15.13;;;;;;;;;;4994549;28;20225;-65
2022/12/13 00:19:10;;;;;;;28.90;14.67;;;;;;;;;;4994666;28;20233;-65
2022/12/13 00:21:35;;;;;;;27.43;14.87;;;;;;;;;;4995496;28;20219;-65
2022/12/13 00:24:00;;;;;;;28.27;14.23;;;;;;;;;;4994119;28;20217;-63
2022/12/13 00:26:27;;;;;;;25.77;14.73;;;;;;;;;;4995379;28;20206;-65
2022/12/13 00:28:53;;;;;;;27.53;15.30;;;;;;;;;;4994504;28;20213;-65
2022/12/13 00:31:18;;;;;;;32.17;15.17;;;;;;;;;;4994762;28;20592;-65
2022/12/13 00:33:43;;;;;;;28.23;14.47;;;;;;;;;;4995158;28;20578;-65
2022/12/13 00:36:09;;;;;;;27.57;14.40;;;;;;;;;;4994001;28;20564;-65
2022/12/13 00:38:34;;;;;;;29.63;14.97;;;;;;;;;;4995143;28;20295;-65
2022/12/13 00:41:08;;;;;;;30.83;15.57;;;;;;;;;;4994879;28;20221;-65
2022/12/13 00:43:33;;;;;;;28.23;14.20;;;;;;;;;;4994114;28;20228;-65
2022/12/13 00:45:58;;;;;;;26.97;14.13;;;;;;;;;;4995009;28;20611;-65
2022/12/13 00:48:24;;;;;;;26.57;14.07;;;;;;;;;;4994151;28;20212;-65
2022/12/13 00:50:49;;;;;;;24.63;13.47;;;;;;;;;;4994109;28;20197;-65
2022/12/13 00:53:14;;;;;;;30.50;16.07;;;;;;;;;;5010509;28;20220;-65
2022/12/13 00:55:40;;;;;;;27.97;14.83;;;;;;;;;;5011878;28;20295;-65
2022/12/13 00:58:05;;;;;;;33.27;15.77;;;;;;;;;;4993692;28;20212;-64
2022/12/13 01:00:30;;;;;;;27.53;14.90;;;;;;;;;;4998551;28;20225;-65
2022/12/13 01:02:56;;;;;;;28.27;15.07;;;;;;;;;;4994601;28;20213;-65
2022/12/13 01:05:21;;;;;;;28.27;15.33;;;;;;;;;;4993387;28;20225;-65
2022/12/13 01:07:47;;;;;;;26.37;15.13;;;;;;;;;;4994585;28;20211;-65
2022/12/13 01:10:12;;;;;;;29.00;15.73;;;;;;;;;;4994189;28;20227;-65
2022/12/13 01:12:37;;;;;;;29.50;15.83;;;;;;;;;;4993732;28;20209;-65
2022/12/13 01:15:03;;;;;;;28.60;15.50;;;;;;;;;;4993974;28;20300;-65
2022/12/13 01:17:29;;;;;;;27.47;15.57;;;;;;;;;;4994015;28;20217;-65
2022/12/13 01:19:54;;;;;;;29.93;15.60;;;;;;;;;;4993442;28;20228;-65
2022/12/13 01:22:20;;;;;;;30.47;16.03;;;;;;;;;;4994054;28;20220;-65
2022/12/13 01:24:45;;;;;;;32.20;15.30;;;;;;;;;;4994151;28;20570;-65
2022/12/13 01:27:10;;;;;;;31.53;15.20;;;;;;;;;;4993142;28;20221;-65
2022/12/13 01:29:36;;;;;;;25.93;15.10;;;;;;;;;;4994260;28;20578;-65
2022/12/13 01:32:01;;;;;;;32.70;16.30;;;;;;;;;;4993562;28;20688;-64
2022/12/13 01:34:27;;;;;;;28.67;15.10;;;;;;;;;;4993296;28;20586;-65
2022/12/13 01:36:52;;;;;;;28.77;14.80;;;;;;;;;;4993938;28;20209;-65
2022/12/13 01:39:18;;;;;;;25.77;14.57;;;;;;;;;;4992908;28;20221;-65
2022/12/13 01:41:45;;;;;;;30.90;16.17;;;;;;;;;;4993936;28;20664;-65
2022/12/13 01:44:29;;;;;;;30.33;15.40;;;;;;;;;;4993570;28;20233;-65
2022/12/13 01:46:54;;;;;;;29.37;15.50;;;;;;;;;;4992844;28;20660;-65
2022/12/13 01:49:20;;;;;;;30.10;15.00;;;;;;;;;;4993227;28;20228;-65
2022/12/13 01:51:46;;;;;;;28.47;14.90;;;;;;;;;;4996322;28;20201;-65
2022/12/13 01:54:11;;;;;;;32.93;16.10;;;;;;;;;;5012071;28;20231;-65
2022/12/13 01:56:40;;;;;;;30.23;15.30;;;;;;;;;;5003016;28;20292;-64
2022/12/13 01:59:05;;;;;;;29.23;15.70;;;;;;;;;;4984661;28;20205;-64
2022/12/13 02:01:31;;;;;;;28.73;14.30;;;;;;;;;;4983733;28;20275;-65
2022/12/13 02:03:56;;;;;;;25.13;14.50;;;;;;;;;;4984351;28;20217;-65
2022/12/13 02:06:25;;;;;;;29.33;15.13;;;;;;;;;;4983354;28;20283;-65
2022/12/13 02:08:50;;;;;;;29.80;15.70;;;;;;;;;;5002069;28;20216;-65
2022/12/13 02:11:15;;;;;;;31.07;14.57;;;;;;;;;;5003136;28;20222;-65
2022/12/13 02:13:41;;;;;;;31.03;16.13;;;;;;;;;;5002870;28;20583;-65
2022/12/13 02:16:06;;;;;;;30.97;15.70;;;;;;;;;;4981195;28;20319;-65
2022/12/13 02:18:47;;;;;;;26.70;14.57;;;;;;;;;;4975520;28;20212;-65
2022/12/13 02:21:18;;;;;;;26.93;15.50;;;;;;;;;;4986774;28;20243;-65
2022/12/13 02:24:02;;;;;;;30.70;15.13;;;;;;;;;;5001015;28;20266;-65
2022/12/13 02:26:40;;;;;;;26.83;14.50;;;;;;;;;;4983078;28;20208;-65
2022/12/13 02:29:05;;;;;;;29.60;15.47;;;;;;;;;;4997447;28;20247;-64
2022/12/13 02:31:31;;;;;;;29.43;14.87;;;;;;;;;;4982662;28;20224;-65
2022/12/13 02:34:04;;;;;;;29.03;14.83;;;;;;;;;;4981948;28;20209;-65
2022/12/13 02:36:30;;;;;;;27.87;14.80;;;;;;;;;;4980717;28;20209;-65
2022/12/13 02:38:58;;;;;;;27.40;13.77;;;;;;;;;;4975946;28;20213;-65
2022/12/13 02:41:35;;;;;;;29.20;14.57;;;;;;;;;;4989239;28;20692;-65
2022/12/13 02:44:02;;;;;;;27.30;14.90;;;;;;;;;;4973679;28;20299;-63
2022/12/13 02:46:28;;;;;;;28.40;14.90;;;;;;;;;;4978813;28;20686;-65
2022/12/13 02:48:53;;;;;;;29.27;14.80;;;;;;;;;;4981587;28;20236;-65
2022/12/13 02:51:19;;;;;;;25.60;14.57;;;;;;;;;;4977586;28;20213;-65
2022/12/13 02:53:44;;;;;;;29.87;15.20;;;;;;;;;;4981281;28;20213;-65
2022/12/13 02:56:10;;;;;;;27.50;13.40;;;;;;;;;;4978604;28;20309;-64
2022/12/13 02:58:36;;;;;;;27.13;14.27;;;;;;;;;;4963637;28;20300;-65
2022/12/13 03:01:02;;;;;;;27.27;14.77;;;;;;;;;;4956343;28;20280;-64
2022/12/13 03:03:31;;;;;;;28.87;14.67;;;;;;;;;;4955903;28;20662;-65
2022/12/13 03:08:44;;;;;;;26.17;14.13;;;;;;;;;;4982459;28;20228;-65
2022/12/13 03:11:10;;;;;;;29.03;15.40;;;;;;;;;;4994869;28;20738;-64
2022/12/13 03:13:36;;;;;;;26.43;14.43;;;;;;;;;;5002319;28;20216;-65
2022/12/13 03:16:10;;;;;;;26.97;14.43;;;;;;;;;;4992583;28;20254;-65
2022/12/13 03:18:35;;;;;;;28.33;14.90;;;;;;;;;;5000614;28;20220;-65
2022/12/13 03:21:01;;;;;;;27.10;15.17;;;;;;;;;;5001649;28;20231;-63
2022/12/13 03:23:27;;;;;;;28.57;14.93;;;;;;;;;;4997244;28;20486;-65
2022/12/13 03:25:53;;;;;;;32.90;16.30;;;;;;;;;;4993716;28;20586;-65
2022/12/13 03:28:18;;;;;;;28.63;14.47;;;;;;;;;;4994016;28;20208;-65
2022/12/13 03:30:44;;;;;;;26.83;14.20;;;;;;;;;;5000203;28;20227;-65
2022/12/13 03:33:09;;;;;;;25.60;14.63;;;;;;;;;;5001353;28;20331;-65
2022/12/13 03:35:34;;;;;;;27.67;14.77;;;;;;;;;;5001922;28;20240;-65
2022/12/13 03:38:00;;;;;;;25.80;14.07;;;;;;;;;;5002548;28;20209;-65
2022/12/13 03:40:26;;;;;;;28.17;14.87;;;;;;;;;;5001406;28;20311;-65
2022/12/13 03:42:51;;;;;;;28.93;14.70;;;;;;;;;;5007146;28;20308;-65
2022/12/13 03:45:17;;;;;;;27.40;13.80;;;;;;;;;;5015340;28;20227;-65
2022/12/13 03:47:42;;;;;;;27.67;14.80;;;;;;;;;;5014866;28;20250;-65
2022/12/13 03:50:08;;;;;;;31.33;14.90;;;;;;;;;;5015287;28;20216;-65
2022/12/13 03:52:33;;;;;;;27.93;14.27;;;;;;;;;;5006536;28;20212;-65
2022/12/13 03:54:58;;;;;;;28.20;14.77;;;;;;;;;;5014919;28;20695;-65
2022/12/13 03:57:24;;;;;;;30.70;14.63;;;;;;;;;;5014965;28;20209;-65
2022/12/13 03:59:49;;;;;;;26.23;14.40;;;;;;;;;;5005220;28;20570;-65
2022/12/13 04:02:14;;;;;;;30.87;14.73;;;;;;;;;;4995454;28;20300;-65
2022/12/13 04:04:39;;;;;;;28.40;15.17;;;;;;;;;;4995788;28;20724;-65
2022/12/13 04:07:05;;;;;;;30.77;15.63;;;;;;;;;;5003110;28;20281;-64
2022/12/13 04:09:30;;;;;;;28.07;14.17;;;;;;;;;;5015361;28;20220;-65
2022/12/13 04:14:39;;;;;;;28.27;14.63;;;;;;;;;;5000887;28;20212;-64
2022/12/13 04:17:04;;;;;;;27.73;15.30;;;;;;;;;;4972186;28;20230;-65
2022/12/13 04:19:29;;;;;;;28.23;14.17;;;;;;;;;;4963920;28;20596;-66
2022/12/13 04:21:55;;;;;;;27.97;14.37;;;;;;;;;;4958445;28;20225;-65
2022/12/13 04:24:20;;;;;;;28.07;14.93;;;;;;;;;;4973872;28;20732;-65
2022/12/13 04:26:46;;;;;;;28.03;14.77;;;;;;;;;;4979780;28;20216;-65
2022/12/13 04:29:11;;;;;;;29.53;14.77;;;;;;;;;;4984600;28;20253;-65
2022/12/13 04:31:37;;;;;;;31.27;15.83;;;;;;;;;;4985695;28;20213;-65
2022/12/13 04:34:02;;;;;;;28.50;14.60;;;;;;;;;;4985082;28;20220;-65
2022/12/13 04:36:27;;;;;;;27.70;14.33;;;;;;;;;;4984634;28;20224;-65
2022/12/13 04:38:52;;;;;;;28.77;14.97;;;;;;;;;;4984947;28;20279;-65
2022/12/13 04:41:18;;;;;;;30.40;15.73;;;;;;;;;;4984980;28;20255;-65
2022/12/13 04:43:43;;;;;;;29.50;15.70;;;;;;;;;;4965057;28;20217;-65
2022/12/13 04:46:09;;;;;;;28.47;14.20;;;;;;;;;;4974424;28;20280;-65
2022/12/13 04:48:34;;;;;;;30.73;15.20;;;;;;;;;;4977590;28;20209;-65
2022/12/13 04:51:00;;;;;;;25.13;14.20;;;;;;;;;;4977560;28;20653;-65
2022/12/13 04:53:25;;;;;;;29.17;15.00;;;;;;;;;;4965567;28;20217;-65
2022/12/13 04:55:51;;;;;;;28.70;14.73;;;;;;;;;;4965048;28;20216;-65
2022/12/13 04:58:16;;;;;;;27.37;14.47;;;;;;;;;;4965392;28;20708;-65
2022/12/13 05:00:42;;;;;;;29.60;15.57;;;;;;;;;;4968801;28;20226;-66
2022/12/13 05:03:07;;;;;;;26.13;14.50;;;;;;;;;;4964659;28;20221;-65
2022/12/13 05:05:32;;;;;;;25.33;14.77;;;;;;;;;;4961203;28;20229;-66
2022/12/13 05:07:57;;;;;;;25.27;13.87;;;;;;;;;;4958163;28;20685;-65
2022/12/13 05:10:23;;;;;;;31.73;15.43;;;;;;;;;;4956248;28;20233;-65
2022/12/13 05:12:48;;;;;;;28.07;14.27;;;;;;;;;;4980977;28;20212;-65
2022/12/13 05:15:13;;;;;;;32.17;16.00;;;;;;;;;;4981554;28;20213;-65
2022/12/13 05:17:38;;;;;;;29.33;15.07;;;;;;;;;;4964835;28;20214;-65
2022/12/13 05:20:04;;;;;;;28.83;14.70;;;;;;;;;;4965087;28;20320;-65
2022/12/13 05:22:29;;;;;;;28.37;15.17;;;;;;;;;;4965060;28;20752;-65
2022/12/13 05:24:54;;;;;;;25.73;14.20;;;;;;;;;;4983445;28;20241;-65
2022/12/13 05:27:20;;;;;;;30.87;15.07;;;;;;;;;;4981239;28;20217;-65
2022/12/13 05:29:45;;;;;;;26.97;14.70;;;;;;;;;;4976830;28;20209;-65
2022/12/13 05:32:10;;;;;;;27.13;14.57;;;;;;;;;;4974847;28;20231;-65
2022/12/13 05:34:36;;;;;;;29.43;15.63;;;;;;;;;;4978529;28;20311;-65
2022/12/13 05:37:01;;;;;;;30.97;15.77;;;;;;;;;;4983614;28;20688;-64
2022/12/13 05:39:26;;;;;;;28.63;14.87;;;;;;;;;;4983299;28;20256;-66
2022/12/13 05:41:51;;;;;;;28.20;14.90;;;;;;;;;;4984156;28;20308;-65
2022/12/13 05:44:17;;;;;;;28.83;15.03;;;;;;;;;;4970736;28;20214;-65
2022/12/13 05:46:42;;;;;;;28.77;15.47;;;;;;;;;;4964199;28;20213;-65
2022/12/13 05:49:07;;;;;;;27.33;14.63;;;;;;;;;;4983339;28;20217;-65
2022/12/13 05:51:33;;;;;;;28.97;15.27;;;;;;;;;;4967020;28;20224;-66
2022/12/13 05:53:58;;;;;;;27.47;14.70;;;;;;;;;;4956250;28;20708;-66
2022/12/13 05:56:23;;;;;;;28.47;14.67;;;;;;;;;;4956354;28;20217;-65
2022/12/13 05:58:48;;;;;;;27.37;14.33;;;;;;;;;;4964014;28;20287;-65
2022/12/13 06:01:14;;;;;;;27.83;14.57;;;;;;;;;;4964004;28;20279;-65
2022/12/13 06:03:39;;;;;;;30.40;16.10;;;;;;;;;;4964580;28;20209;-65
2022/12/13 06:06:05;;;;;;;33.77;16.23;;;;;;;;;;4964174;28;20263;-65
2022/12/13 06:08:30;;;;;;;32.30;16.57;;;;;;;;;;4963805;28;20714;-66
2022/12/13 06:10:56;;;;;;;29.53;16.30;;;;;;;;;;4964717;28;20305;-65
2022/12/13 06:13:21;;;;;;;30.13;16.13;;;;;;;;;;4959750;28;20579;-65
2022/12/13 06:15:47;;;;;;;30.40;16.17;;;;;;;;;;4956253;28;20304;-66
2022/12/13 06:18:12;;;;;;;32.20;15.50;;;;;;;;;;4956005;28;20728;-65
2022/12/13 06:20:37;;;;;;;30.63;15.83;;;;;;;;;;4973468;28;20336;-66
2022/12/13 06:23:02;;;;;;;31.37;15.57;;;;;;;;;;4983054;28;20578;-65
2022/12/13 06:25:28;;;;;;;34.03;17.17;;;;;;;;;;4983213;28;20221;-65
2022/12/13 06:27:53;;;;;;;33.00;17.13;;;;;;;;;;4982877;28;20279;-65
2022/12/13 06:30:18;;;;;;;26.70;14.63;;;;;;;;;;4965599;28;20228;-64
2022/12/13 06:32:47;;;;;;;31.03;16.10;;;;;;;;;;4964505;28;20244;-66
2022/12/13 06:35:12;;;;;;;32.87;16.63;;;;;;;;;;4974741;28;20214;-67
2022/12/13 06:37:37;;;;;;;30.17;16.30;;;;;;;;;;4957456;28;20217;-64
2022/12/13 06:40:03;;;;;;;34.17;20.17;;;;;;;;;;4962611;28;20533;-66
2022/12/13 06:42:28;;;;;;;32.37;16.63;;;;;;;;;;4975721;28;20209;-65
2022/12/13 06:44:53;;;;;;;32.77;16.50;;;;;;;;;;4964939;28;20714;-66
2022/12/13 06:47:19;;;;;;;36.87;18.40;;;;;;;;;;4963884;28;20205;-66
2022/12/13 06:49:45;;;;;;;38.50;20.73;;;;;;;;;;4963517;28;20288;-66
2022/12/13 06:52:11;;;;;;;39.10;20.93;;;;;;;;;;4964878;28;20209;-66
2022/12/13 06:54:36;;;;;;;34.73;18.93;;;;;;;;;;4963744;28;20699;-66
2022/12/13 06:57:02;;;;;;;33.73;19.00;;;;;;;;;;4962802;28;20752;-65
2022/12/13 06:59:27;;;;;;;40.30;21.57;;;;;;;;;;4955644;28;20574;-65
2022/12/13 07:01:52;;;;;;;47.40;23.10;;;;;;;;;;4957494;28;20210;-65
2022/12/13 07:04:17;;;;;;;42.77;21.47;;;;;;;;;;4954951;28;20655;-66
2022/12/13 07:06:43;;;;;;;39.63;19.40;;;;;;;;;;4963477;28;20685;-65
2022/12/13 07:09:08;;;;;;;41.30;20.63;;;;;;;;;;4963897;28;20304;-65
2022/12/13 07:11:33;;;;;;;40.80;20.87;;;;;;;;;;4963253;28;20206;-64
2022/12/13 07:13:59;;;;;;;38.57;19.83;;;;;;;;;;4964060;28;20218;-65
2022/12/13 07:16:25;;;;;;;38.05;22.48;;;;;;;;;;4963441;28;20457;-65
2022/12/13 07:18:53;;;;;;;35.03;18.77;;;;;;;;;;4966876;28;20784;-65
2022/12/13 07:21:18;;;;;;;33.20;17.97;;;;;;;;;;4964011;28;20229;-65
2022/12/13 07:23:43;;;;;;;32.63;17.70;;;;;;;;;;4959710;28;20205;-65
2022/12/13 07:26:09;;;;;;;31.93;17.13;;;;;;;;;;4958078;28;20225;-64
2022/12/13 07:28:34;;;;;;;35.93;20.07;;;;;;;;;;4963271;28;20244;-65
2022/12/13 07:31:00;;;;;;;34.57;20.47;;;;;;;;;;4966867;28;20237;-65
2022/12/13 07:33:28;;;;;;;38.40;20.43;;;;;;;;;;4975211;28;20212;-65
2022/12/13 07:35:58;;;;;;;33.47;18.37;;;;;;;;;;4967506;28;20222;-64
2022/12/13 07:38:23;;;;;;;31.67;18.17;;;;;;;;;;4984775;28;20216;-64
2022/12/13 07:40:49;;;;;;;152.53;92.93;;;;;;;;;;4985670;28;20727;-64
2022/12/13 07:43:14;;;;;;;733.63;595.67;;;;;;;;;;4983872;28;20240;-64
2022/12/13 07:45:40;;;;;;;252.00;193.30;;;;;;;;;;4978353;28;20526;-64
2022/12/13 07:48:05;;;;;;;87.70;67.63;;;;;;;;;;4978349;28;20300;-64
2022/12/13 07:50:31;;;;;;;71.00;38.43;;;;;;;;;;4980258;28;20677;-63
2022/12/13 07:52:56;;;;;;;111.57;61.77;;;;;;;;;;4985777;28;20216;-63
2022/12/13 07:55:21;;;;;;;88.17;53.00;;;;;;;;;;4985773;28;20209;-66
2022/12/13 07:57:47;;;;;;;55.10;28.70;;;;;;;;;;4985887;28;20538;-63
2022/12/13 08:00:12;;;;;;;94.70;57.17;;;;;;;;;;4985135;28;20224;-63
2022/12/13 08:02:38;;;;;;;74.87;44.43;;;;;;;;;;4994738;28;20255;-62
2022/12/13 08:05:04;;;;;;;65.50;39.20;;;;;;;;;;4995301;28;20229;-63
2022/12/13 08:07:29;;;;;;;34.00;19.77;;;;;;;;;;5007201;28;20219;-64
2022/12/13 08:09:55;;;;;;;35.60;20.03;;;;;;;;;;5015166;28;20235;-61
2022/12/13 08:12:20;;;;;;;46.47;25.30;;;;;;;;;;5013225;28;20216;-64
2022/12/13 08:14:45;;;;;;;36.93;19.97;;;;;;;;;;5014547;28;20846;-64
2022/12/13 08:17:10;;;;;;;41.37;21.10;;;;;;;;;;4995543;28;20296;-64
2022/12/13 08:19:36;;;;;;;39.03;21.23;;;;;;;;;;4995372;28;20677;-64
2022/12/13 08:22:01;;;;;;;36.93;19.07;;;;;;;;;;4994359;28;20293;-63
2022/12/13 08:24:27;;;;;;;40.33;19.97;;;;;;;;;;4995340;28;20288;-64
2022/12/13 08:26:52;;;;;;;36.03;19.63;;;;;;;;;;4995142;28;20300;-65
2022/12/13 08:29:18;;;;;;;37.37;20.57;;;;;;;;;;4992819;28;20672;-65
2022/12/13 08:31:43;;;;;;;34.50;19.90;;;;;;;;;;4994673;28;20312;-65
2022/12/13 08:34:08;;;;;;;37.20;22.43;;;;;;;;;;4994062;28;20212;-65
2022/12/13 08:36:34;;;;;;;43.77;26.97;;;;;;;;;;4995236;28;20209;-64
2022/12/13 08:39:01;;;;;;;39.80;21.07;;;;;;;;;;4995099;28;20264;-65
2022/12/13 08:41:27;;;;;;;40.97;20.27;;;;;;;;;;4993990;28;20598;-65
2022/12/13 08:43:52;;;;;;;37.20;19.50;;;;;;;;;;4994333;28;20703;-65
2022/12/13 08:46:17;;;;;;;41.20;20.30;;;;;;;;;;4994518;28;20267;-64
2022/12/13 08:48:42;;;;;;;37.83;19.90;;;;;;;;;;4994168;28;20209;-65
2022/12/13 08:51:10;;;;;;;38.63;21.53;;;;;;;;;;5002018;28;20682;-64
2022/12/13 08:53:35;;;;;;;38.50;20.33;;;;;;;;;;4995407;28;20213;-65
2022/12/13 08:56:01;;;;;;;37.87;20.63;;;;;;;;;;4998789;28;20313;-63
2022/12/13 08:58:27;;;;;;;39.87;20.73;;;;;;;;;;5013759;28;20216;-64
2022/12/13 09:00:52;;;;;;;41.77;21.90;;;;;;;;;;4996320;28;20748;-65
2022/12/13 09:03:17;;;;;;;41.23;21.40;;;;;;;;;;4995044;28;20590;-64
2022/12/13 09:05:43;;;;;;;37.97;20.90;;;;;;;;;;4994940;28;20225;-65
2022/12/13 09:08:08;;;;;;;41.07;22.17;;;;;;;;;;4994682;28;20232;-64
2022/12/13 09:10:33;;;;;;;39.30;20.23;;;;;;;;;;5009982;28;20212;-65
2022/12/13 09:13:00;;;;;;;41.20;21.67;;;;;;;;;;5007028;28;20750;-64
2022/12/13 09:15:25;;;;;;;37.33;20.73;;;;;;;;;;5008664;28;20249;-64
2022/12/13 09:17:51;;;;;;;40.33;22.13;;;;;;;;;;4993571;28;20237;-65
2022/12/13 09:20:16;;;;;;;38.20;20.40;;;;;;;;;;4994105;28;20264;-65
2022/12/13 09:22:42;;;;;;;38.70;21.00;;;;;;;;;;4994363;28;20204;-65
2022/12/13 09:25:08;;;;;;;38.00;20.70;;;;;;;;;;4993083;28;20260;-64
2022/12/13 09:27:33;;;;;;;37.07;20.80;;;;;;;;;;4993570;28;20213;-64
2022/12/13 09:29:59;;;;;;;46.30;20.97;;;;;;;;;;4993923;28;20664;-65
2022/12/13 09:32:24;;;;;;;39.10;21.20;;;;;;;;;;4993014;28;20723;-65
2022/12/13 09:34:50;;;;;;;40.90;20.73;;;;;;;;;;4994307;28;20217;-65
2022/12/13 09:37:15;;;;;;;38.27;20.67;;;;;;;;;;4993693;28;20572;-66
2022/12/13 09:39:40;;;;;;;36.80;20.10;;;;;;;;;;4992932;28;20264;-65
2022/12/13 09:42:08;;;;;;;37.97;19.97;;;;;;;;;;4992603;28;20669;-65
2022/12/13 09:44:35;;;;;;;39.97;21.57;;;;;;;;;;4991723;28;20213;-65
2022/12/13 09:47:01;;;;;;;34.93;19.50;;;;;;;;;;4993607;28;20661;-65
2022/12/13 09:49:29;;;;;;;34.63;19.00;;;;;;;;;;4973000;28;20210;-64
2022/12/13 09:51:56;;;;;;;35.37;19.70;;;;;;;;;;4972166;28;20225;-64
2022/12/13 09:54:21;;;;;;;34.63;20.17;;;;;;;;;;4973904;28;20229;-64
2022/12/13 09:56:49;;;;;;;34.83;19.53;;;;;;;;;;4985384;28;20216;-64
2022/12/13 09:59:15;;;;;;;33.43;18.33;;;;;;;;;;4992459;28;20205;-64
2022/12/13 10:01:40;;;;;;;33.70;19.40;;;;;;;;;;4999446;28;20236;-64
2022/12/13 10:04:07;;;;;;;34.67;19.37;;;;;;;;;;4993116;28;20217;-64
2022/12/13 10:06:33;;;;;;;35.83;19.70;;;;;;;;;;4991682;28;20217;-64
2022/12/13 10:08:59;;;;;;;33.97;19.00;;;;;;;;;;4993424;28;20217;-64
2022/12/13 10:11:24;;;;;;;31.27;17.57;;;;;;;;;;4991482;28;20275;-64
2022/12/13 10:13:52;;;;;;;35.07;19.03;;;;;;;;;;4986029;28;20692;-65
2022/12/13 10:16:21;;;;;;;32.33;19.77;;;;;;;;;;4980070;28;20221;-64
2022/12/13 10:18:46;;;;;;;34.20;19.80;;;;;;;;;;4972704;28;20214;-65
2022/12/13 10:21:12;;;;;;;32.73;18.40;;;;;;;;;;4972671;28;20233;-64
2022/12/13 10:23:37;;;;;;;29.87;17.73;;;;;;;;;;4972637;28;20280;-63
2022/12/13 10:26:06;;;;;;;33.53;18.97;;;;;;;;;;4973413;28;20225;-62
2022/12/13 10:28:32;;;;;;;33.20;19.23;;;;;;;;;;4972952;28;20213;-64
2022/12/13 10:30:57;;;;;;;32.77;18.57;;;;;;;;;;4973474;28;20209;-64
2022/12/13 10:33:23;;;;;;;31.37;17.73;;;;;;;;;;4973699;28;20665;-64
2022/12/13 10:36:07;;;;;;;32.03;18.83;;;;;;;;;;4972877;28;20248;-64
2022/12/13 10:38:34;;;;;;;31.03;18.17;;;;;;;;;;4981440;28;20216;-64
2022/12/13 10:41:00;;;;;;;30.07;18.03;;;;;;;;;;4972914;28;20256;-65
2022/12/13 10:43:26;;;;;;;31.23;18.07;;;;;;;;;;4973151;28;20241;-67
2022/12/13 10:45:53;;;;;;;32.53;18.57;;;;;;;;;;4973233;28;20209;-64
2022/12/13 10:48:20;;;;;;;30.87;17.83;;;;;;;;;;4972246;28;20221;-66
2022/12/13 10:50:54;;;;;;;29.13;17.80;;;;;;;;;;4971754;28;20232;-66
2022/12/13 10:53:19;;;;;;;28.77;17.30;;;;;;;;;;4956509;28;20248;-66
2022/12/13 10:55:45;;;;;;;28.27;17.13;;;;;;;;;;4978620;28;20243;-66
2022/12/13 10:58:15;;;;;;;29.60;17.57;;;;;;;;;;4996004;28;20291;-66
2022/12/13 11:00:43;;;;;;;29.57;17.60;;;;;;;;;;4998685;28;20271;-66
2022/12/13 11:03:09;;;;;;;28.83;17.70;;;;;;;;;;4994212;28;20343;-66
2022/12/13 11:05:35;;;;;;;28.27;17.20;;;;;;;;;;4995357;28;20305;-66
2022/12/13 11:08:11;;;;;;;28.97;17.60;;;;;;;;;;4995717;28;20751;-66
2022/12/13 11:10:36;;;;;;;29.43;16.50;;;;;;;;;;4989237;28;20209;-66
2022/12/13 11:13:02;;;;;;;26.37;16.60;;;;;;;;;;5002962;28;20216;-66
2022/12/13 11:15:29;;;;;;;27.07;16.80;;;;;;;;;;5009737;28;20243;-67
2022/12/13 11:18:05;;;;;;;30.23;17.33;;;;;;;;;;4994368;28;20220;-66
2022/12/13 11:20:35;;;;;;;27.67;16.93;;;;;;;;;;4983034;28;20235;-66
2022/12/13 11:23:02;;;;;;;27.60;17.03;;;;;;;;;;4974791;28;20712;-66
2022/12/13 11:25:30;;;;;;;29.07;17.30;;;;;;;;;;4975666;28;20623;-67
2022/12/13 11:28:00;;;;;;;28.37;16.93;;;;;;;;;;4975263;28;20589;-67
2022/12/13 11:30:33;;;;;;;28.60;17.23;;;;;;;;;;4958170;28;21040;-67
2022/12/13 11:33:03;;;;;;;29.83;17.77;;;;;;;;;;4976745;28;20221;-67
2022/12/13 11:35:40;;;;;;;29.57;17.90;;;;;;;;;;4984235;28;20276;-67
2022/12/13 11:38:06;;;;;;;27.53;17.57;;;;;;;;;;4975523;28;20292;-66
2022/12/13 11:40:32;;;;;;;28.67;16.93;;;;;;;;;;4976688;28;20232;-66
2022/12/13 11:42:57;;;;;;;29.43;17.23;;;;;;;;;;4975122;28;20209;-66
2022/12/13 11:45:26;;;;;;;29.77;16.83;;;;;;;;;;4975563;28;20233;-66
2022/12/13 11:48:01;;;;;;;27.83;16.80;;;;;;;;;;4976311;28;20213;-66
2022/12/13 11:50:36;;;;;;;27.97;16.47;;;;;;;;;;4976402;28;20293;-66
2022/12/13 11:53:22;;;;;;;27.43;16.67;;;;;;;;;;4974218;28;20580;-65
2022/12/13 11:55:51;;;;;;;27.40;16.80;;;;;;;;;;4979503;28;20237;-66
2022/12/13 11:58:22;;;;;;;28.23;17.30;;;;;;;;;;4994777;28;20249;-66
2022/12/13 12:00:49;;;;;;;30.53;17.23;;;;;;;;;;5007477;28;20271;-66
2022/12/13 12:03:19;;;;;;;28.70;16.50;;;;;;;;;;4996385;28;20208;-66
2022/12/13 12:05:46;;;;;;;28.33;16.70;;;;;;;;;;4993312;28;20308;-66
2022/12/13 12:08:22;;;;;;;29.40;18.20;;;;;;;;;;4995275;28;20688;-66
2022/12/13 12:10:48;;;;;;;30.87;17.90;;;;;;;;;;4994214;28;20278;-66
2022/12/13 12:13:13;;;;;;;34.50;18.73;;;;;;;;;;4986585;28;20603;-65
2022/12/13 12:15:41;;;;;;;31.00;18.80;;;;;;;;;;4989178;28;20297;-66
2022/12/13 12:18:09;;;;;;;30.03;17.97;;;;;;;;;;4975323;28;20228;-66
2022/12/13 12:20:43;;;;;;;29.00;17.20;;;;;;;;;;4973987;28;20280;-66
2022/12/13 12:23:26;;;;;;;29.33;16.83;;;;;;;;;;4975482;28;20234;-66
2022/12/13 12:25:54;;;;;;;30.83;17.13;;;;;;;;;;4990300;28;20217;-66
2022/12/13 12:28:26;;;;;;;32.57;17.90;;;;;;;;;;5004187;28;20749;-66
2022/12/13 12:31:01;;;;;;;29.60;17.33;;;;;;;;;;4984761;28;20214;-66
2022/12/13 12:33:36;;;;;;;30.60;17.33;;;;;;;;;;4993829;28;20213;-66
2022/12/13 12:36:08;;;;;;;29.00;18.07;;;;;;;;;;4994872;28;20242;-64
2022/12/13 12:38:39;;;;;;;30.03;18.87;;;;;;;;;;4995254;28;20229;-67
2022/12/13 12:41:05;;;;;;;31.10;18.77;;;;;;;;;;4992357;28;20762;-70
2022/12/13 12:43:31;;;;;;;32.63;19.13;;;;;;;;;;4995158;28;20267;-70
2022/12/13 12:46:02;;;;;;;35.70;20.83;;;;;;;;;;4993892;28;20209;-69
2022/12/13 12:48:27;;;;;;;39.30;21.97;;;;;;;;;;4993081;28;20220;-69
2022/12/13 12:50:52;;;;;;;32.37;19.27;;;;;;;;;;4994927;28;20292;-69
2022/12/13 12:53:18;;;;;;;37.30;20.97;;;;;;;;;;4993178;28;20213;-68
2022/12/13 12:55:55;;;;;;;34.60;20.13;;;;;;;;;;4996652;28;20259;-69
2022/12/13 12:58:25;;;;;;;35.80;21.43;;;;;;;;;;5005951;28;20240;-69
2022/12/13 13:01:04;;;;;;;36.63;21.60;;;;;;;;;;4996619;28;20257;-67
2022/12/13 13:03:30;;;;;;;34.97;19.33;;;;;;;;;;4992386;28;20236;-70
2022/12/13 13:05:55;;;;;;;36.00;20.17;;;;;;;;;;4994314;28;20252;-70
2022/12/13 13:08:23;;;;;;;34.20;19.97;;;;;;;;;;4994358;28;20268;-69
2022/12/13 13:10:49;;;;;;;40.27;21.10;;;;;;;;;;4994452;28;20696;-70
2022/12/13 13:13:33;;;;;;;36.47;19.60;;;;;;;;;;5002415;28;20232;-69
2022/12/13 13:15:58;;;;;;;37.50;20.67;;;;;;;;;;5003034;28;20316;-70
2022/12/13 13:18:52;;;;;;;34.87;19.43;;;;;;;;;;4993761;28;20300;-70
2022/12/13 13:21:24;;;;;;;38.37;20.13;;;;;;;;;;4993870;28;20233;-70
2022/12/13 13:24:00;;;;;;;33.80;19.10;;;;;;;;;;4993908;28;20205;-70
2022/12/13 13:26:31;;;;;;;34.47;18.97;;;;;;;;;;4993536;28;20603;-70
2022/12/13 13:29:15;;;;;;;34.50;19.27;;;;;;;;;;4993176;28;20209;-68
2022/12/13 13:31:56;;;;;;;34.60;19.33;;;;;;;;;;4999309;28;20209;-68
2022/12/13 13:34:24;;;;;;;34.87;19.50;;;;;;;;;;4993734;28;20263;-67
2022/12/13 13:36:51;;;;;;;33.87;19.00;;;;;;;;;;4993606;28;20612;-68
2022/12/13 13:39:18;;;;;;;41.20;23.00;;;;;;;;;;4993446;28;20695;-67
2022/12/13 13:41:50;;;;;;;36.10;19.73;;;;;;;;;;4993651;28;20244;-68
2022/12/13 13:44:30;;;;;;;39.20;20.73;;;;;;;;;;4992850;28;20209;-67
2022/12/13 13:47:10;;;;;;;39.93;21.97;;;;;;;;;;4992637;28;20300;-67
2022/12/13 13:49:35;;;;;;;35.60;20.63;;;;;;;;;;4986602;28;20205;-67
2022/12/13 13:52:06;;;;;;;37.83;21.13;;;;;;;;;;4991366;28;20225;-66
2022/12/13 13:54:43;;;;;;;36.00;20.80;;;;;;;;;;4992759;28;20641;-67
2022/12/13 13:57:15;;;;;;;40.50;20.53;;;;;;;;;;4992815;28;20217;-67
2022/12/13 13:59:53;;;;;;;58.30;30.57;;;;;;;;;;5000741;28;20299;-68
2022/12/13 14:02:24;;;;;;;37.33;19.90;;;;;;;;;;5012678;28;20224;-67
2022/12/13 14:05:07;;;;;;;35.90;20.50;;;;;;;;;;5008824;28;20232;-68
2022/12/13 14:07:44;;;;;;;35.70;18.90;;;;;;;;;;4996640;28;20208;-66
2022/12/13 14:10:16;;;;;;;36.60;19.63;;;;;;;;;;5009923;28;20227;-70
2022/12/13 14:12:52;;;;;;;33.27;17.60;;;;;;;;;;4979757;28;20217;-70
2022/12/13 14:15:36;;;;;;;40.90;23.07;;;;;;;;;;4976763;28;20256;-70
2022/12/13 14:18:01;;;;;;;33.93;19.23;;;;;;;;;;4992954;28;20213;-70
2022/12/13 14:20:36;;;;;;;32.70;17.73;;;;;;;;;;4992203;28;20313;-71
2022/12/13 14:23:21;;;;;;;31.80;17.73;;;;;;;;;;4992950;28;20304;-70